sensor_id;sensor_type;location;lat;lon;timestamp;pressure;altitude;pressure_sealevel;temperature;humidity
17054;BME280;8643;48.824;11.422;2023-07-31T00:00:56;97043.78;;;11.87;100.00
17054;BME280;8643;48.824;11.422;2023-07-31T00:03:26;97034.25;;;11.72;100.00
17054;BME280;8643;48.824;11.422;2023-07-31T00:05:55;97041.47;;;11.55;100.00
17054;BME280;8643;48.824;11.422;2023-07-31T00:08:23;97042.34;;;11.47;100.00
17054;BME280;8643;48.824;11.422;2023-07-31T00:10:52;97043.03;;;11.44;100.00
17054;BME280;8643;48.824;11.422;2023-07-31T00:13:20;97041.75;;;11.42;100.00
17054;BME280;8643;48.824;11.422;2023-07-31T00:15:49;97041.41;;;11.43;100.00
17054;BME280;8643;48.824;11.422;2023-07-31T00:18:18;97033.03;;;11.61;100.00
17054;BME280;8643;48.824;11.422;2023-07-31T00:20:48;97037.91;;;11.76;100.00
17054;BME280;8643;48.824;11.422;2023-07-31T00:23:16;97043.72;;;11.74;100.00
17054;BME280;8643;48.824;11.422;2023-07-31T00:25:45;97033.59;;;11.54;100.00
17054;BME280;8643;48.824;11.422;2023-07-31T00:28:14;97025.03;;;11.34;100.00
17054;BME280;8643;48.824;11.422;2023-07-31T00:30:42;97020.22;;;11.10;100.00
17054;BME280;8643;48.824;11.422;2023-07-31T00:33:11;97025.00;;;10.92;100.00
17054;BME280;8643;48.824;11.422;2023-07-31T00:35:40;97025.09;;;10.75;100.00
17054;BME280;8643;48.824;11.422;2023-07-31T00:38:10;97025.88;;;10.75;100.00
17054;BME280;8643;48.824;11.422;2023-07-31T00:40:39;97028.28;;;10.77;100.00
17054;BME280;8643;48.824;11.422;2023-07-31T00:43:08;97025.56;;;10.77;100.00
17054;BME280;8643;48.824;11.422;2023-07-31T00:45:36;97033.59;;;10.82;100.00
17054;BME280;8643;48.824;11.422;2023-07-31T00:48:06;97028.59;;;10.84;100.00
17054;BME280;8643;48.824;11.422;2023-07-31T00:50:35;97014.31;;;10.99;100.00
17054;BME280;8643;48.824;11.422;2023-07-31T00:53:04;97017.94;;;11.12;100.00
17054;BME280;8643;48.824;11.422;2023-07-31T00:55:34;97011.66;;;11.12;100.00
17054;BME280;8643;48.824;11.422;2023-07-31T00:58:03;97019.00;;;11.20;100.00
17054;BME280;8643;48.824;11.422;2023-07-31T01:00:32;97024.16;;;11.22;100.00
17054;BME280;8643;48.824;11.422;2023-07-31T01:03:01;97020.25;;;11.23;100.00
17054;BME280;8643;48.824;11.422;2023-07-31T01:05:39;97016.00;;;11.34;100.00
17054;BME280;8643;48.824;11.422;2023-07-31T01:08:17;97021.25;;;11.39;100.00
17054;BME280;8643;48.824;11.422;2023-07-31T01:10:54;97015.78;;;11.39;100.00
17054;BME280;8643;48.824;11.422;2023-07-31T01:13:24;97015.00;;;11.38;100.00
17054;BME280;8643;48.824;11.422;2023-07-31T01:15:53;97020.47;;;11.38;100.00
17054;BME280;8643;48.824;11.422;2023-07-31T01:18:21;97023.88;;;11.35;100.00
17054;BME280;8643;48.824;11.422;2023-07-31T01:24:07;97015.13;;;11.21;100.00
17054;BME280;8643;48.824;11.422;2023-07-31T01:26:43;97008.09;;;11.11;100.00
17054;BME280;8643;48.824;11.422;2023-07-31T01:29:20;97001.22;;;11.05;100.00
17054;BME280;8643;48.824;11.422;2023-07-31T01:31:53;96993.38;;;10.95;100.00
17054;BME280;8643;48.824;11.422;2023-07-31T01:34:24;96994.91;;;10.83;100.00
17054;BME280;8643;48.824;11.422;2023-07-31T01:36:53;96989.16;;;10.76;100.00
17054;BME280;8643;48.824;11.422;2023-07-31T01:39:23;96995.75;;;10.75;100.00
17054;BME280;8643;48.824;11.422;2023-07-31T01:41:53;96990.34;;;10.67;100.00
17054;BME280;8643;48.824;11.422;2023-07-31T01:44:21;97005.78;;;10.71;100.00
17054;BME280;8643;48.824;11.422;2023-07-31T01:46:50;97005.31;;;10.69;100.00
17054;BME280;8643;48.824;11.422;2023-07-31T01:49:19;96992.47;;;10.61;100.00
17054;BME280;8643;48.824;11.422;2023-07-31T01:51:48;96999.47;;;10.50;100.00
17054;BME280;8643;48.824;11.422;2023-07-31T01:54:16;96990.94;;;10.42;100.00
17054;BME280;8643;48.824;11.422;2023-07-31T01:56:45;96992.94;;;10.33;100.00
17054;BME280;8643;48.824;11.422;2023-07-31T01:59:15;96988.75;;;10.27;100.00
17054;BME280;8643;48.824;11.422;2023-07-31T02:01:43;96994.53;;;10.25;100.00
17054;BME280;8643;48.824;11.422;2023-07-31T02:04:15;96995.16;;;10.31;100.00
17054;BME280;8643;48.824;11.422;2023-07-31T02:06:44;96998.72;;;10.32;100.00
17054;BME280;8643;48.824;11.422;2023-07-31T02:09:12;96987.03;;;10.14;100.00
17054;BME280;8643;48.824;11.422;2023-07-31T02:11:41;96990.25;;;10.07;100.00
17054;BME280;8643;48.824;11.422;2023-07-31T02:14:10;96982.69;;;10.13;100.00
17054;BME280;8643;48.824;11.422;2023-07-31T02:16:42;96986.25;;;10.04;100.00
17054;BME280;8643;48.824;11.422;2023-07-31T02:19:10;96980.81;;;9.87;100.00
17054;BME280;8643;48.824;11.422;2023-07-31T02:21:39;96968.25;;;9.95;100.00
17054;BME280;8643;48.824;11.422;2023-07-31T02:24:08;96965.72;;;9.89;100.00
17054;BME280;8643;48.824;11.422;2023-07-31T02:26:36;96965.06;;;9.93;100.00
17054;BME280;8643;48.824;11.422;2023-07-31T02:29:05;96967.78;;;9.93;100.00
17054;BME280;8643;48.824;11.422;2023-07-31T02:31:34;96967.09;;;9.96;100.00
17054;BME280;8643;48.824;11.422;2023-07-31T02:34:03;96959.09;;;9.90;100.00
17054;BME280;8643;48.824;11.422;2023-07-31T02:36:32;96958.63;;;9.88;100.00
17054;BME280;8643;48.824;11.422;2023-07-31T02:39:01;96963.13;;;9.93;100.00
17054;BME280;8643;48.824;11.422;2023-07-31T02:41:29;96958.28;;;9.90;100.00
17054;BME280;8643;48.824;11.422;2023-07-31T02:43:57;96957.97;;;9.91;100.00
17054;BME280;8643;48.824;11.422;2023-07-31T02:46:26;96958.75;;;9.92;100.00
17054;BME280;8643;48.824;11.422;2023-07-31T02:48:55;96960.69;;;9.91;100.00
17054;BME280;8643;48.824;11.422;2023-07-31T02:51:24;96953.94;;;9.89;100.00
17054;BME280;8643;48.824;11.422;2023-07-31T02:53:53;96965.66;;;9.98;100.00
17054;BME280;8643;48.824;11.422;2023-07-31T02:56:21;96960.06;;;9.95;100.00
17054;BME280;8643;48.824;11.422;2023-07-31T02:58:50;96956.34;;;9.99;100.00
17054;BME280;8643;48.824;11.422;2023-07-31T03:01:19;96958.75;;;10.01;100.00
17054;BME280;8643;48.824;11.422;2023-07-31T03:03:48;96957.94;;;10.00;100.00
17054;BME280;8643;48.824;11.422;2023-07-31T03:06:16;96950.53;;;10.01;100.00
17054;BME280;8643;48.824;11.422;2023-07-31T03:08:46;96950.56;;;9.92;100.00
17054;BME280;8643;48.824;11.422;2023-07-31T03:11:14;96953.94;;;9.98;100.00
17054;BME280;8643;48.824;11.422;2023-07-31T03:13:43;96953.47;;;9.87;100.00
17054;BME280;8643;48.824;11.422;2023-07-31T03:16:11;96943.81;;;9.89;100.00
17054;BME280;8643;48.824;11.422;2023-07-31T03:18:40;96948.66;;;9.84;100.00
17054;BME280;8643;48.824;11.422;2023-07-31T03:21:08;96946.09;;;9.79;100.00
17054;BME280;8643;48.824;11.422;2023-07-31T03:23:37;96952.06;;;9.72;100.00
17054;BME280;8643;48.824;11.422;2023-07-31T03:26:08;96949.81;;;9.74;100.00
17054;BME280;8643;48.824;11.422;2023-07-31T03:28:36;96963.00;;;9.72;100.00
17054;BME280;8643;48.824;11.422;2023-07-31T03:31:05;96957.41;;;9.68;100.00
17054;BME280;8643;48.824;11.422;2023-07-31T03:33:35;96960.59;;;9.70;100.00
17054;BME280;8643;48.824;11.422;2023-07-31T03:36:04;96956.75;;;9.71;100.00
17054;BME280;8643;48.824;11.422;2023-07-31T03:38:33;96961.41;;;9.71;100.00
17054;BME280;8643;48.824;11.422;2023-07-31T03:41:01;96959.47;;;9.71;100.00
17054;BME280;8643;48.824;11.422;2023-07-31T03:43:31;96953.19;;;9.71;100.00
17054;BME280;8643;48.824;11.422;2023-07-31T03:46:01;96959.31;;;9.77;100.00
17054;BME280;8643;48.824;11.422;2023-07-31T03:48:30;96959.59;;;9.84;100.00
17054;BME280;8643;48.824;11.422;2023-07-31T03:50:59;96962.00;;;9.85;100.00
17054;BME280;8643;48.824;11.422;2023-07-31T03:53:27;96956.03;;;9.92;100.00
17054;BME280;8643;48.824;11.422;2023-07-31T03:55:56;96955.22;;;9.91;100.00
17054;BME280;8643;48.824;11.422;2023-07-31T03:58:24;96959.91;;;9.91;100.00
17054;BME280;8643;48.824;11.422;2023-07-31T04:00:54;96951.38;;;9.93;100.00
17054;BME280;8643;48.824;11.422;2023-07-31T04:03:22;96949.91;;;9.95;100.00
17054;BME280;8643;48.824;11.422;2023-07-31T04:05:51;96949.28;;;9.89;100.00
17054;BME280;8643;48.824;11.422;2023-07-31T04:08:19;96954.44;;;9.91;100.00
17054;BME280;8643;48.824;11.422;2023-07-31T04:10:47;96948.97;;;9.91;100.00
17054;BME280;8643;48.824;11.422;2023-07-31T04:13:16;96952.53;;;9.83;100.00
17054;BME280;8643;48.824;11.422;2023-07-31T04:15:48;96949.31;;;9.81;100.00
17054;BME280;8643;48.824;11.422;2023-07-31T04:18:19;96943.22;;;9.75;100.00
17054;BME280;8643;48.824;11.422;2023-07-31T04:20:48;96943.50;;;9.82;100.00
17054;BME280;8643;48.824;11.422;2023-07-31T04:23:17;96947.72;;;9.80;100.00
17054;BME280;8643;48.824;11.422;2023-07-31T04:25:45;96936.91;;;9.83;100.00
17054;BME280;8643;48.824;11.422;2023-07-31T04:28:14;96941.41;;;9.88;100.00
17054;BME280;8643;48.824;11.422;2023-07-31T04:30:42;96936.69;;;9.97;100.00
17054;BME280;8643;48.824;11.422;2023-07-31T04:33:11;96935.72;;;10.02;100.00
17054;BME280;8643;48.824;11.422;2023-07-31T04:35:41;96944.69;;;10.11;100.00
17054;BME280;8643;48.824;11.422;2023-07-31T04:38:09;96948.34;;;10.24;100.00
17054;BME280;8643;48.824;11.422;2023-07-31T04:40:38;96947.16;;;10.42;100.00
17054;BME280;8643;48.824;11.422;2023-07-31T04:43:06;96947.28;;;10.46;100.00
17054;BME280;8643;48.824;11.422;2023-07-31T04:45:34;96939.38;;;10.53;100.00
17054;BME280;8643;48.824;11.422;2023-07-31T04:48:03;96940.19;;;10.75;100.00
17054;BME280;8643;48.824;11.422;2023-07-31T04:50:32;96943.53;;;11.01;100.00
17054;BME280;8643;48.824;11.422;2023-07-31T04:53:02;96941.47;;;11.19;100.00
17054;BME280;8643;48.824;11.422;2023-07-31T04:55:30;96933.19;;;11.41;100.00
17054;BME280;8643;48.824;11.422;2023-07-31T04:58:00;96941.16;;;11.54;100.00
17054;BME280;8643;48.824;11.422;2023-07-31T05:00:28;96934.56;;;11.68;100.00
17054;BME280;8643;48.824;11.422;2023-07-31T05:02:57;96941.75;;;11.72;100.00
17054;BME280;8643;48.824;11.422;2023-07-31T05:05:26;96935.09;;;11.95;100.00
17054;BME280;8643;48.824;11.422;2023-07-31T05:07:54;96946.56;;;12.21;100.00
17054;BME280;8643;48.824;11.422;2023-07-31T05:10:24;96950.56;;;12.36;100.00
17054;BME280;8643;48.824;11.422;2023-07-31T05:12:52;96950.44;;;12.45;100.00
17054;BME280;8643;48.824;11.422;2023-07-31T05:15:21;96951.03;;;12.63;100.00
17054;BME280;8643;48.824;11.422;2023-07-31T05:17:49;96941.03;;;12.83;100.00
17054;BME280;8643;48.824;11.422;2023-07-31T05:20:18;96944.50;;;13.08;100.00
17054;BME280;8643;48.824;11.422;2023-07-31T05:22:47;96937.38;;;13.19;100.00
17054;BME280;8643;48.824;11.422;2023-07-31T05:25:15;96932.31;;;13.34;100.00
17054;BME280;8643;48.824;11.422;2023-07-31T05:27:45;96931.13;;;13.47;100.00
17054;BME280;8643;48.824;11.422;2023-07-31T05:30:13;96931.31;;;13.54;100.00
17054;BME280;8643;48.824;11.422;2023-07-31T05:32:42;96940.03;;;13.56;100.00
17054;BME280;8643;48.824;11.422;2023-07-31T05:35:11;96942.00;;;13.72;100.00
17054;BME280;8643;48.824;11.422;2023-07-31T05:37:40;96939.53;;;13.83;100.00
17054;BME280;8643;48.824;11.422;2023-07-31T05:40:09;96933.84;;;13.91;100.00
17054;BME280;8643;48.824;11.422;2023-07-31T05:42:38;96932.72;;;13.92;100.00
17054;BME280;8643;48.824;11.422;2023-07-31T05:45:09;96934.94;;;14.19;100.00
17054;BME280;8643;48.824;11.422;2023-07-31T05:47:38;96937.50;;;14.43;100.00
17054;BME280;8643;48.824;11.422;2023-07-31T05:50:07;96936.50;;;14.52;100.00
17054;BME280;8643;48.824;11.422;2023-07-31T05:52:36;96938.13;;;14.69;100.00
17054;BME280;8643;48.824;11.422;2023-07-31T05:55:05;96937.22;;;14.80;100.00
17054;BME280;8643;48.824;11.422;2023-07-31T05:57:35;96933.66;;;14.80;100.00
17054;BME280;8643;48.824;11.422;2023-07-31T06:00:05;96933.81;;;14.87;100.00
17054;BME280;8643;48.824;11.422;2023-07-31T06:02:35;96924.78;;;15.06;100.00
17054;BME280;8643;48.824;11.422;2023-07-31T06:05:05;96927.53;;;15.26;100.00
17054;BME280;8643;48.824;11.422;2023-07-31T06:07:34;96928.81;;;15.12;100.00
17054;BME280;8643;48.824;11.422;2023-07-31T06:10:04;96927.31;;;15.15;100.00
17054;BME280;8643;48.824;11.422;2023-07-31T06:12:33;96938.78;;;15.36;100.00
17054;BME280;8643;48.824;11.422;2023-07-31T06:15:03;96934.00;;;15.33;100.00
17054;BME280;8643;48.824;11.422;2023-07-31T06:17:33;96932.19;;;15.41;100.00
17054;BME280;8643;48.824;11.422;2023-07-31T06:20:03;96940.44;;;15.61;100.00
17054;BME280;8643;48.824;11.422;2023-07-31T06:22:32;96941.19;;;15.38;100.00
17054;BME280;8643;48.824;11.422;2023-07-31T06:25:00;96933.78;;;15.23;100.00
17054;BME280;8643;48.824;11.422;2023-07-31T06:27:29;96934.44;;;15.35;100.00
17054;BME280;8643;48.824;11.422;2023-07-31T06:29:57;96940.47;;;15.41;100.00
17054;BME280;8643;48.824;11.422;2023-07-31T06:32:26;96936.97;;;15.25;100.00
17054;BME280;8643;48.824;11.422;2023-07-31T06:34:55;96935.88;;;15.29;100.00
17054;BME280;8643;48.824;11.422;2023-07-31T06:37:25;96934.78;;;15.14;100.00
17054;BME280;8643;48.824;11.422;2023-07-31T06:39:54;96934.50;;;15.39;100.00
17054;BME280;8643;48.824;11.422;2023-07-31T06:42:23;96929.59;;;15.29;100.00
17054;BME280;8643;48.824;11.422;2023-07-31T06:44:52;96945.38;;;15.32;100.00
17054;BME280;8643;48.824;11.422;2023-07-31T06:47:20;96932.34;;;15.48;100.00
17054;BME280;8643;48.824;11.422;2023-07-31T06:49:49;96927.66;;;15.72;100.00
17054;BME280;8643;48.824;11.422;2023-07-31T06:52:17;96918.63;;;15.75;100.00
17054;BME280;8643;48.824;11.422;2023-07-31T06:55:02;96925.63;;;15.69;100.00
17054;BME280;8643;48.824;11.422;2023-07-31T06:57:31;96924.47;;;15.70;100.00
17054;BME280;8643;48.824;11.422;2023-07-31T07:00:01;96930.94;;;15.78;100.00
17054;BME280;8643;48.824;11.422;2023-07-31T07:02:29;96930.47;;;15.95;100.00
17054;BME280;8643;48.824;11.422;2023-07-31T07:04:57;96928.94;;;15.98;100.00
17054;BME280;8643;48.824;11.422;2023-07-31T07:07:26;96928.63;;;15.80;100.00
17054;BME280;8643;48.824;11.422;2023-07-31T07:09:56;96931.94;;;16.12;100.00
17054;BME280;8643;48.824;11.422;2023-07-31T07:12:29;96933.16;;;16.38;100.00
17054;BME280;8643;48.824;11.422;2023-07-31T07:14:57;96926.88;;;16.64;100.00
17054;BME280;8643;48.824;11.422;2023-07-31T07:17:27;96928.63;;;17.02;100.00
17054;BME280;8643;48.824;11.422;2023-07-31T07:19:56;96918.31;;;17.30;100.00
17054;BME280;8643;48.824;11.422;2023-07-31T07:22:24;96912.06;;;17.36;100.00
17054;BME280;8643;48.824;11.422;2023-07-31T07:24:56;96912.91;;;17.78;97.00
17054;BME280;8643;48.824;11.422;2023-07-31T07:27:24;96904.63;;;18.19;98.25
17054;BME280;8643;48.824;11.422;2023-07-31T07:29:53;96918.72;;;17.66;96.22
17054;BME280;8643;48.824;11.422;2023-07-31T07:32:22;96917.34;;;17.49;97.10
17054;BME280;8643;48.824;11.422;2023-07-31T07:34:50;96920.72;;;17.04;97.69
17054;BME280;8643;48.824;11.422;2023-07-31T07:37:19;96915.44;;;16.92;100.00
17054;BME280;8643;48.824;11.422;2023-07-31T07:39:47;96909.91;;;16.92;100.00
17054;BME280;8643;48.824;11.422;2023-07-31T07:42:18;96914.31;;;17.27;100.00
17054;BME280;8643;48.824;11.422;2023-07-31T07:44:47;96916.69;;;17.63;100.00
17054;BME280;8643;48.824;11.422;2023-07-31T07:47:15;96902.16;;;18.62;96.69
17054;BME280;8643;48.824;11.422;2023-07-31T07:49:44;96913.28;;;19.29;88.94
17054;BME280;8643;48.824;11.422;2023-07-31T07:52:19;96915.94;;;20.67;82.66
17054;BME280;8643;48.824;11.422;2023-07-31T07:54:48;96920.28;;;20.93;77.03
17054;BME280;8643;48.824;11.422;2023-07-31T07:57:18;96909.56;;;20.20;79.90
17054;BME280;8643;48.824;11.422;2023-07-31T07:59:48;96909.91;;;19.89;84.96
17054;BME280;8643;48.824;11.422;2023-07-31T08:02:16;96912.63;;;19.71;81.75
17054;BME280;8643;48.824;11.422;2023-07-31T08:04:48;96913.91;;;19.88;80.80
17054;BME280;8643;48.824;11.422;2023-07-31T08:07:17;96910.63;;;19.65;81.54
17054;BME280;8643;48.824;11.422;2023-07-31T08:09:45;96907.78;;;19.47;79.13
17054;BME280;8643;48.824;11.422;2023-07-31T08:12:15;96911.66;;;19.28;80.36
17054;BME280;8643;48.824;11.422;2023-07-31T08:14:45;96914.81;;;19.19;80.02
17054;BME280;8643;48.824;11.422;2023-07-31T08:17:14;96911.31;;;19.33;79.29
17054;BME280;8643;48.824;11.422;2023-07-31T08:19:43;96903.78;;;19.37;77.29
17054;BME280;8643;48.824;11.422;2023-07-31T08:22:12;96917.34;;;19.64;77.96
17054;BME280;8643;48.824;11.422;2023-07-31T08:24:41;96907.16;;;20.04;76.06
17054;BME280;8643;48.824;11.422;2023-07-31T08:27:09;96915.94;;;20.35;76.23
17054;BME280;8643;48.824;11.422;2023-07-31T08:29:38;96915.91;;;20.42;73.41
17054;BME280;8643;48.824;11.422;2023-07-31T08:32:09;96916.72;;;20.24;76.09
17054;BME280;8643;48.824;11.422;2023-07-31T08:34:38;96907.56;;;20.13;75.33
17054;BME280;8643;48.824;11.422;2023-07-31T08:37:07;96910.75;;;20.11;77.97
17054;BME280;8643;48.824;11.422;2023-07-31T08:39:35;96903.97;;;19.80;77.03
17054;BME280;8643;48.824;11.422;2023-07-31T08:42:08;96905.06;;;19.72;76.75
17054;BME280;8643;48.824;11.422;2023-07-31T08:44:38;96901.50;;;19.75;75.92
17054;BME280;8643;48.824;11.422;2023-07-31T08:47:08;96901.50;;;19.68;75.78
17054;BME280;8643;48.824;11.422;2023-07-31T08:49:39;96899.50;;;19.65;77.74
17054;BME280;8643;48.824;11.422;2023-07-31T08:52:10;96895.50;;;19.51;76.02
17054;BME280;8643;48.824;11.422;2023-07-31T08:54:38;96888.78;;;19.63;76.02
17054;BME280;8643;48.824;11.422;2023-07-31T08:57:08;96887.97;;;19.52;75.33
17054;BME280;8643;48.824;11.422;2023-07-31T08:59:39;96892.69;;;19.33;77.25
17054;BME280;8643;48.824;11.422;2023-07-31T09:02:11;96895.53;;;19.58;76.68
17054;BME280;8643;48.824;11.422;2023-07-31T09:04:41;96891.94;;;19.51;74.71
17054;BME280;8643;48.824;11.422;2023-07-31T09:07:11;96895.09;;;19.46;75.26
17054;BME280;8643;48.824;11.422;2023-07-31T09:09:40;96886.88;;;19.78;76.01
17054;BME280;8643;48.824;11.422;2023-07-31T09:12:09;96887.97;;;19.55;75.25
17054;BME280;8643;48.824;11.422;2023-07-31T09:14:39;96885.63;;;19.65;76.89
17054;BME280;8643;48.824;11.422;2023-07-31T09:17:10;96877.34;;;19.79;76.33
17054;BME280;8643;48.824;11.422;2023-07-31T09:19:39;96873.41;;;20.02;75.82
17054;BME280;8643;48.824;11.422;2023-07-31T09:22:07;96877.34;;;20.58;73.92
17054;BME280;8643;48.824;11.422;2023-07-31T09:24:36;96873.78;;;20.83;72.07
17054;BME280;8643;48.824;11.422;2023-07-31T09:27:06;96875.34;;;21.83;69.61
17054;BME280;8643;48.824;11.422;2023-07-31T09:29:35;96870.16;;;22.86;66.44
17054;BME280;8643;48.824;11.422;2023-07-31T09:32:04;96866.28;;;22.73;64.52
17054;BME280;8643;48.824;11.422;2023-07-31T09:34:38;96860.13;;;21.24;66.72
17054;BME280;8643;48.824;11.422;2023-07-31T09:37:07;96855.28;;;21.39;67.51
17054;BME280;8643;48.824;11.422;2023-07-31T09:39:46;96855.53;;;22.23;61.95
17054;BME280;8643;48.824;11.422;2023-07-31T09:42:25;96849.31;;;22.95;63.26
17054;BME280;8643;48.824;11.422;2023-07-31T09:45:07;96843.97;;;24.00;58.60
17054;BME280;8643;48.824;11.422;2023-07-31T09:47:36;96842.91;;;23.63;56.31
17054;BME280;8643;48.824;11.422;2023-07-31T09:50:09;96834.19;;;24.12;58.89
17054;BME280;8643;48.824;11.422;2023-07-31T09:52:39;96827.09;;;24.07;56.94
17054;BME280;8643;48.824;11.422;2023-07-31T09:55:09;96833.34;;;24.62;58.07
17054;BME280;8643;48.824;11.422;2023-07-31T09:57:41;96833.78;;;24.61;56.62
17054;BME280;8643;48.824;11.422;2023-07-31T10:00:12;96835.28;;;24.42;54.08
17054;BME280;8643;48.824;11.422;2023-07-31T10:02:41;96824.59;;;24.37;55.38
17054;BME280;8643;48.824;11.422;2023-07-31T10:05:15;96820.66;;;24.58;54.50
17054;BME280;8643;48.824;11.422;2023-07-31T10:07:53;96819.00;;;23.86;52.35
17054;BME280;8643;48.824;11.422;2023-07-31T10:10:23;96820.34;;;22.81;55.62
17054;BME280;8643;48.824;11.422;2023-07-31T10:12:54;96823.31;;;22.67;55.50
17054;BME280;8643;48.824;11.422;2023-07-31T10:15:24;96811.22;;;22.77;58.89
17054;BME280;8643;48.824;11.422;2023-07-31T10:17:55;96813.72;;;22.68;55.81
17054;BME280;8643;48.824;11.422;2023-07-31T10:20:26;96810.91;;;23.06;56.07
17054;BME280;8643;48.824;11.422;2023-07-31T10:22:56;96802.06;;;23.42;54.15
17054;BME280;8643;48.824;11.422;2023-07-31T10:25:27;96800.63;;;24.36;53.73
17054;BME280;8643;48.824;11.422;2023-07-31T10:27:57;96805.13;;;24.53;51.83
17054;BME280;8643;48.824;11.422;2023-07-31T10:30:29;96797.22;;;24.01;51.48
17054;BME280;8643;48.824;11.422;2023-07-31T10:32:59;96793.75;;;24.40;53.40
17054;BME280;8643;48.824;11.422;2023-07-31T10:35:30;96786.03;;;24.48;52.28
17054;BME280;8643;48.824;11.422;2023-07-31T10:38:10;96785.13;;;24.51;53.17
17054;BME280;8643;48.824;11.422;2023-07-31T10:40:40;96787.06;;;25.38;50.72
17054;BME280;8643;48.824;11.422;2023-07-31T10:43:08;96779.19;;;24.93;51.32
17054;BME280;8643;48.824;11.422;2023-07-31T10:45:41;96772.41;;;24.90;51.67
17054;BME280;8643;48.824;11.422;2023-07-31T10:48:15;96774.78;;;25.12;51.40
17054;BME280;8643;48.824;11.422;2023-07-31T10:50:49;96772.16;;;24.41;50.15
17054;BME280;8643;48.824;11.422;2023-07-31T10:53:26;96777.41;;;23.91;51.43
17054;BME280;8643;48.824;11.422;2023-07-31T10:55:58;96778.94;;;24.63;50.56
17054;BME280;8643;48.824;11.422;2023-07-31T10:58:27;96769.28;;;24.68;50.70
17054;BME280;8643;48.824;11.422;2023-07-31T11:00:57;96759.72;;;24.85;50.94
17054;BME280;8643;48.824;11.422;2023-07-31T11:03:40;96761.66;;;24.01;51.06
17054;BME280;8643;48.824;11.422;2023-07-31T11:06:12;96739.19;;;23.81;52.14
17054;BME280;8643;48.824;11.422;2023-07-31T11:08:46;96750.47;;;23.74;52.26
17054;BME280;8643;48.824;11.422;2023-07-31T11:11:17;96735.28;;;24.02;51.70
17054;BME280;8643;48.824;11.422;2023-07-31T11:13:47;96741.06;;;23.91;51.67
17054;BME280;8643;48.824;11.422;2023-07-31T11:16:19;96741.16;;;24.51;49.77
17054;BME280;8643;48.824;11.422;2023-07-31T11:18:49;96724.34;;;24.31;52.07
17054;BME280;8643;48.824;11.422;2023-07-31T11:21:22;96718.78;;;23.84;55.85
17054;BME280;8643;48.824;11.422;2023-07-31T11:23:54;96726.34;;;24.31;50.33
17054;BME280;8643;48.824;11.422;2023-07-31T11:26:27;96728.16;;;25.21;49.42
17054;BME280;8643;48.824;11.422;2023-07-31T11:28:58;96713.78;;;25.19;48.84
17054;BME280;8643;48.824;11.422;2023-07-31T11:31:26;96723.25;;;25.46;50.06
17054;BME280;8643;48.824;11.422;2023-07-31T11:34:05;96711.56;;;25.31;49.45
17054;BME280;8643;48.824;11.422;2023-07-31T11:36:35;96707.63;;;25.45;49.27
17054;BME280;8643;48.824;11.422;2023-07-31T11:39:08;96708.97;;;25.73;49.69
17054;BME280;8643;48.824;11.422;2023-07-31T11:41:41;96707.28;;;25.42;47.51
17054;BME280;8643;48.824;11.422;2023-07-31T11:44:09;96706.94;;;25.57;47.00
17054;BME280;8643;48.824;11.422;2023-07-31T11:46:56;96701.25;;;25.60;47.73
17054;BME280;8643;48.824;11.422;2023-07-31T11:49:26;96704.31;;;25.50;48.93
17054;BME280;8643;48.824;11.422;2023-07-31T11:51:56;96686.44;;;26.09;47.24
17054;BME280;8643;48.824;11.422;2023-07-31T11:54:24;96686.13;;;26.49;48.29
17054;BME280;8643;48.824;11.422;2023-07-31T11:56:53;96679.00;;;26.03;46.39
17054;BME280;8643;48.824;11.422;2023-07-31T11:59:23;96681.97;;;25.79;49.64
17054;BME280;8643;48.824;11.422;2023-07-31T12:01:52;96689.41;;;25.00;48.95
17054;BME280;8643;48.824;11.422;2023-07-31T12:04:21;96685.50;;;25.14;48.09
17054;BME280;8643;48.824;11.422;2023-07-31T12:06:54;96692.69;;;25.15;49.29
17054;BME280;8643;48.824;11.422;2023-07-31T12:09:25;96684.41;;;24.91;48.62
17054;BME280;8643;48.824;11.422;2023-07-31T12:11:53;96679.22;;;25.26;49.27
17054;BME280;8643;48.824;11.422;2023-07-31T12:14:24;96680.13;;;23.79;51.57
17054;BME280;8643;48.824;11.422;2023-07-31T12:16:54;96685.03;;;22.89;53.07
17054;BME280;8643;48.824;11.422;2023-07-31T12:19:25;96682.91;;;23.01;55.96
17054;BME280;8643;48.824;11.422;2023-07-31T12:22:00;96685.50;;;23.42;54.03
17054;BME280;8643;48.824;11.422;2023-07-31T12:24:28;96685.59;;;23.63;51.49
17054;BME280;8643;48.824;11.422;2023-07-31T12:26:57;96686.28;;;23.94;50.32
17054;BME280;8643;48.824;11.422;2023-07-31T12:29:34;96670.50;;;23.33;52.90
17054;BME280;8643;48.824;11.422;2023-07-31T12:32:20;96671.69;;;23.08;53.01
17054;BME280;8643;48.824;11.422;2023-07-31T12:34:49;96664.66;;;23.23;53.50
17054;BME280;8643;48.824;11.422;2023-07-31T12:37:21;96660.78;;;23.65;53.76
17054;BME280;8643;48.824;11.422;2023-07-31T12:39:50;96665.34;;;23.55;52.59
17054;BME280;8643;48.824;11.422;2023-07-31T12:42:19;96657.63;;;23.63;53.53
17054;BME280;8643;48.824;11.422;2023-07-31T12:44:48;96654.97;;;23.79;51.35
17054;BME280;8643;48.824;11.422;2023-07-31T12:47:17;96646.50;;;23.35;54.04
17054;BME280;8643;48.824;11.422;2023-07-31T12:49:46;96641.53;;;23.47;53.07
17054;BME280;8643;48.824;11.422;2023-07-31T12:52:14;96635.78;;;23.81;53.12
17054;BME280;8643;48.824;11.422;2023-07-31T12:54:44;96637.41;;;24.42;50.25
17054;BME280;8643;48.824;11.422;2023-07-31T12:57:12;96625.91;;;23.96;51.07
17054;BME280;8643;48.824;11.422;2023-07-31T12:59:41;96638.13;;;24.26;51.34
17054;BME280;8643;48.824;11.422;2023-07-31T13:02:10;96625.22;;;24.32;51.06
17054;BME280;8643;48.824;11.422;2023-07-31T13:04:39;96606.91;;;24.28;50.25
17054;BME280;8643;48.824;11.422;2023-07-31T13:07:07;96603.56;;;23.73;52.22
17054;BME280;8643;48.824;11.422;2023-07-31T13:09:36;96610.72;;;23.97;52.60
17054;BME280;8643;48.824;11.422;2023-07-31T13:12:08;96602.19;;;24.65;51.26